Time;durP1;ratioP1;P1;durP2;ratioP2;P2;SDS_P1;SDS_P2;PMS_P1;PMS_P2;Temp;Humidity;BMP_temperature;BMP_pressure;BME280_temperature;BME280_humidity;BME280_pressure;Samples;Min_cycle;Max_cycle;Signal;HPM_P1;HPM_P2
2021/05/12 00:01:51;;;;;;;2.30;1.35;;;;;;;19.75;54.82;101129.47;4758932;30;20094;-86
2021/05/12 00:04:16;;;;;;;2.92;1.67;;;;;;;19.76;54.60;101125.13;4774315;30;20023;-87
2021/05/12 00:06:42;;;;;;;2.97;1.40;;;;;;;19.73;54.71;101136.47;4790493;30;20114;-86
2021/05/12 00:09:07;;;;;;;2.47;1.30;;;;;;;19.73;54.79;101139.06;4774372;30;20039;-87
2021/05/12 00:11:33;;;;;;;3.55;1.52;;;;;;;19.76;54.72;101131.19;4759200;30;20452;-85
2021/05/12 00:13:58;;;;;;;2.22;1.35;;;;;;;19.76;54.77;101136.41;4777803;30;20059;-87
2021/05/12 00:16:24;;;;;;;4.97;1.42;;;;;;;19.75;54.90;101136.44;4763276;24;20087;-87
2021/05/12 00:18:49;;;;;;;2.88;1.60;;;;;;;19.72;55.00;101126.88;4772318;30;20462;-86
2021/05/12 00:21:26;;;;;;;1.67;1.10;;;;;;;19.70;54.70;101129.50;4770840;30;20043;-86
2021/05/12 00:23:59;;;;;;;2.58;1.20;;;;;;;19.71;54.65;101130.41;4771012;30;20085;-86
2021/05/12 00:26:42;;;;;;;3.53;1.23;;;;;;;19.72;54.75;101140.81;4757542;30;20071;-87
2021/05/12 00:29:19;;;;;;;1.67;1.20;;;;;;;19.72;54.42;101142.56;4771323;30;20092;-86
2021/05/12 00:31:45;;;;;;;2.92;1.50;;;;;;;19.72;54.57;101139.94;4772089;30;20153;-87
2021/05/12 00:34:13;;;;;;;2.67;1.65;;;;;;;19.70;54.63;101139.09;4771874;30;20126;-87
2021/05/12 00:36:40;;;;;;;2.35;1.25;;;;;;;19.70;54.67;101129.50;4771882;30;20035;-87
2021/05/12 00:39:07;;;;;;;2.25;1.17;;;;;;;19.71;54.76;101138.22;4771874;30;20036;-86
2021/05/12 00:41:42;;;;;;;2.28;1.05;;;;;;;19.69;54.79;101138.25;4771271;30;20039;-85
2021/05/12 00:44:20;;;;;;;1.58;1.10;;;;;;;19.69;54.57;101135.63;4771002;30;20038;-86
2021/05/12 00:46:48;;;;;;;2.17;1.13;;;;;;;19.68;54.43;101133.84;4764662;30;20028;-85
2021/05/12 00:49:14;;;;;;;1.88;1.20;;;;;;;19.69;54.72;101138.25;4738061;30;20033;-85
2021/05/12 00:51:40;;;;;;;2.10;1.27;;;;;;;19.69;54.59;101134.75;4744461;30;20040;-84
2021/05/12 00:54:07;;;;;;;2.22;1.25;;;;;;;19.70;54.63;101141.72;4762623;30;20029;-86
2021/05/12 00:56:39;;;;;;;2.85;1.60;;;;;;;19.67;54.69;101137.38;4764147;30;20032;-85
2021/05/12 00:59:05;;;;;;;2.50;1.23;;;;;;;19.68;54.63;101141.69;4764066;30;20028;-85
2021/05/12 01:01:30;;;;;;;3.25;1.33;;;;;;;19.68;54.58;101140.84;4756647;30;20032;-85
2021/05/12 01:03:56;;;;;;;2.35;1.10;;;;;;;19.68;54.45;101146.06;4754174;30;20064;-87
2021/05/12 01:09:43;;;;;;;1.63;1.10;;;;;;;19.67;54.80;101144.34;4757191;30;20039;-85
2021/05/12 01:12:09;;;;;;;1.63;1.08;;;;;;;19.65;54.60;101154.81;4755588;30;20477;-86
2021/05/12 01:14:35;;;;;;;2.35;1.17;;;;;;;19.65;54.56;101149.56;4754825;30;20036;-85
2021/05/12 01:17:01;;;;;;;2.10;1.30;;;;;;;19.65;54.52;101148.72;4764471;30;20553;-85
2021/05/12 01:19:27;;;;;;;1.75;1.00;;;;;;;19.64;54.43;101153.09;4757193;30;20135;-86
2021/05/12 01:21:53;;;;;;;2.90;1.20;;;;;;;19.64;54.49;101149.59;4757001;30;20047;-86
2021/05/12 01:24:20;;;;;;;2.20;1.40;;;;;;;19.64;54.61;101154.81;4775109;30;20075;-86
2021/05/12 01:26:45;;;;;;;1.50;0.95;;;;;;;19.65;54.63;101154.81;4776324;30;20032;-85
2021/05/12 01:29:11;;;;;;;2.33;1.25;;;;;;;19.65;54.64;101151.34;4761980;30;20130;-85
2021/05/12 01:31:55;;;;;;;2.28;1.17;;;;;;;19.65;54.64;101152.19;4777419;30;20110;-85
2021/05/12 01:34:21;;;;;;;2.50;1.33;;;;;;;19.64;54.47;101147.88;4777848;30;20515;-85
2021/05/12 01:36:48;;;;;;;1.42;0.93;;;;;;;19.63;54.56;101140.03;4769246;30;20032;-86
2021/05/12 01:39:15;;;;;;;1.85;1.10;;;;;;;19.63;54.63;101147.88;4758324;30;20036;-85
2021/05/12 01:41:40;;;;;;;1.52;0.90;;;;;;;19.63;54.50;101153.94;4789832;30;20028;-84
2021/05/12 01:44:10;;;;;;;2.03;1.10;;;;;;;19.63;54.49;101155.72;4789493;30;20039;-85
2021/05/12 01:46:37;;;;;;;2.25;1.10;;;;;;;19.63;54.68;101153.09;4783493;30;20028;-86
2021/05/12 01:49:03;;;;;;;2.33;1.00;;;;;;;19.60;54.40;101151.41;4779762;30;20024;-86
2021/05/12 01:51:29;;;;;;;1.55;1.00;;;;;;;19.60;54.43;101150.50;4782244;30;20039;-86
2021/05/12 01:53:55;;;;;;;1.80;0.93;;;;;;;19.61;54.61;101152.25;4767704;30;20468;-86
2021/05/12 01:56:21;;;;;;;1.67;1.00;;;;;;;19.63;54.53;101160.94;4781453;30;20092;-86
2021/05/12 01:58:46;;;;;;;2.35;1.10;;;;;;;19.59;54.67;101162.72;4763561;30;20234;-86
2021/05/12 02:01:12;;;;;;;1.40;1.00;;;;;;;19.61;54.63;101163.56;4777196;30;20040;-86
2021/05/12 02:03:38;;;;;;;1.67;1.10;;;;;;;19.62;54.64;101161.78;4761778;30;20469;-86
2021/05/12 02:06:04;;;;;;;1.55;1.00;;;;;;;19.59;54.59;101154.03;4776143;30;20040;-86
2021/05/12 02:08:30;;;;;;;1.15;0.80;;;;;;;19.59;54.58;101156.63;4776256;30;20467;-85
2021/05/12 02:11:02;;;;;;;2.13;1.20;;;;;;;19.57;54.58;101148.81;4775439;30;20035;-85
2021/05/12 02:13:29;;;;;;;1.75;1.00;;;;;;;19.57;54.58;101156.63;4775833;30;20040;-84
2021/05/12 02:15:56;;;;;;;1.58;0.90;;;;;;;19.56;54.54;101149.69;4763455;30;20161;-84
2021/05/12 02:18:21;;;;;;;2.05;0.77;;;;;;;19.59;54.60;101151.41;4793365;30;20031;-85
2021/05/12 02:20:47;;;;;;;2.10;1.00;;;;;;;19.56;54.43;101152.31;4777201;30;20490;-84
2021/05/12 02:23:15;;;;;;;1.88;0.93;;;;;;;19.56;54.40;101151.47;4761865;30;20043;-85
2021/05/12 02:25:40;;;;;;;1.80;1.02;;;;;;;19.57;54.82;101154.03;4777831;30;20062;-85
2021/05/12 02:28:06;;;;;;;1.45;0.90;;;;;;;19.57;54.67;101156.63;4777261;30;20479;-85
2021/05/12 02:30:32;;;;;;;1.73;0.80;;;;;;;19.57;54.24;101161.00;4777644;30;20035;-85
2021/05/12 02:32:58;;;;;;;2.13;1.02;;;;;;;19.56;54.50;101156.69;4777081;30;20062;-85
2021/05/12 02:35:24;;;;;;;2.55;1.10;;;;;;;19.56;54.58;101161.91;4776514;30;20035;-86
2021/05/12 02:37:50;;;;;;;2.20;0.80;;;;;;;19.55;54.41;101160.16;4776580;30;20103;-86
2021/05/12 02:40:17;;;;;;;2.22;1.10;;;;;;;19.55;54.53;101158.41;4777198;30;20027;-84
2021/05/12 02:42:43;;;;;;;1.45;0.90;;;;;;;19.53;54.47;101148.00;4776866;30;20038;-85
2021/05/12 02:45:09;;;;;;;1.30;0.80;;;;;;;19.52;54.34;101142.78;4776535;30;20032;-85
2021/05/12 02:47:35;;;;;;;1.33;0.80;;;;;;;19.53;54.45;101149.72;4777107;30;20031;-84
2021/05/12 02:50:02;;;;;;;4.43;0.85;;;;;;;19.56;54.55;101161.91;4776798;30;20115;-87
2021/05/12 02:52:28;;;;;;;1.95;1.00;;;;;;;19.50;54.36;101142.81;4777740;30;20031;-86
2021/05/12 02:54:53;;;;;;;1.83;0.95;;;;;;;19.51;54.63;101144.53;4762448;30;20054;-85
2021/05/12 02:57:19;;;;;;;1.50;0.88;;;;;;;19.55;54.45;101154.94;4776642;30;20502;-86
2021/05/12 02:59:45;;;;;;;2.45;0.90;;;;;;;19.49;54.66;101140.22;4792650;30;20498;-86
2021/05/12 03:02:11;;;;;;;1.35;0.80;;;;;;;19.50;54.48;101148.03;4777501;30;20028;-86
2021/05/12 03:04:36;;;;;;;1.38;0.80;;;;;;;19.51;54.58;101143.66;4777837;30;20507;-87
2021/05/12 03:07:02;;;;;;;1.65;0.75;;;;;;;19.50;54.53;101147.16;4776404;30;20035;-85
2021/05/12 03:09:28;;;;;;;1.33;0.70;;;;;;;19.50;54.56;101150.63;4776584;30;20023;-86
2021/05/12 03:11:53;;;;;;;1.35;0.80;;;;;;;19.50;54.44;101158.47;4764007;30;20054;-86
2021/05/12 03:14:19;;;;;;;2.40;0.70;;;;;;;19.49;54.45;101151.53;4793778;30;20400;-85
2021/05/12 03:16:45;;;;;;;1.50;0.80;;;;;;;19.47;54.38;101148.06;4778016;30;20130;-86
2021/05/12 03:19:11;;;;;;;2.90;0.90;;;;;;;19.50;54.41;101155.00;4778057;30;20027;-85
2021/05/12 03:21:37;;;;;;;1.17;0.70;;;;;;;19.48;54.43;101151.53;4792289;30;20058;-85
2021/05/12 03:26:39;;;;;;;1.17;0.70;;;;;;;19.48;54.39;101152.41;4820161;24;20132;-86
2021/05/12 03:32:27;;;;;;;1.42;0.90;;;;;;;19.46;54.71;101153.31;4777314;30;20046;-86
2021/05/12 03:38:15;;;;;;;1.35;0.70;;;;;;;19.45;54.54;101148.97;4778852;30;20066;-87
2021/05/12 03:40:42;;;;;;;0.95;0.70;;;;;;;19.46;54.87;101150.69;4774358;30;20036;-86
2021/05/12 03:43:09;;;;;;;0.88;0.60;;;;;;;19.46;54.61;101153.31;4758574;30;20058;-87
2021/05/12 03:45:34;;;;;;;1.38;0.80;;;;;;;19.47;54.54;101161.13;4757958;30;20036;-85
2021/05/12 03:48:00;;;;;;;4.85;0.75;;;;;;;19.46;54.45;101163.75;4757669;30;20028;-85
2021/05/12 03:50:28;;;;;;;1.15;0.70;;;;;;;19.46;54.52;101159.38;4757554;30;20400;-85
2021/05/12 03:52:55;;;;;;;1.17;0.75;;;;;;;19.47;54.46;101168.94;4757281;30;20058;-86
2021/05/12 03:55:22;;;;;;;0.93;0.75;;;;;;;19.45;54.62;101168.09;4757516;30;20119;-85
2021/05/12 03:57:51;;;;;;;0.88;0.65;;;;;;;19.46;54.53;101176.78;4760992;30;20028;-87
2021/05/12 04:00:17;;;;;;;1.42;0.70;;;;;;;19.46;54.40;101177.66;4781211;30;20110;-85
2021/05/12 04:02:43;;;;;;;0.75;0.60;;;;;;;19.44;54.44;101179.41;4769157;30;20031;-85
2021/05/12 04:05:10;;;;;;;0.75;0.50;;;;;;;19.45;54.47;101186.38;4766056;30;20035;-85
2021/05/12 04:07:36;;;;;;;1.77;0.70;;;;;;;19.47;54.46;101181.16;4749174;30;20492;-86
2021/05/12 04:10:04;;;;;;;1.17;0.80;;;;;;;19.48;54.45;101180.25;4763433;30;20088;-85
2021/05/12 04:12:29;;;;;;;0.80;0.57;;;;;;;19.48;54.44;101181.09;4763852;30;20027;-87
2021/05/12 04:14:55;;;;;;;1.52;0.80;;;;;;;19.49;54.43;101195.91;4736832;30;20072;-86
2021/05/12 04:17:20;;;;;;;1.40;0.70;;;;;;;19.47;54.28;101187.22;4747945;30;20034;-86
2021/05/12 04:19:45;;;;;;;1.63;0.80;;;;;;;19.48;54.28;101194.16;4759339;30;20062;-86
2021/05/12 04:22:11;;;;;;;1.13;0.73;;;;;;;19.50;54.25;101194.16;4758821;30;20095;-86
2021/05/12 04:24:36;;;;;;;1.13;0.73;;;;;;;19.49;54.37;101192.44;4758198;30;20023;-86
2021/05/12 04:27:02;;;;;;;1.33;0.60;;;;;;;19.51;54.33;101195.88;4757743;30;20052;-86
2021/05/12 04:29:28;;;;;;;0.85;0.63;;;;;;;19.51;54.42;101198.47;4741770;30;20500;-86
2021/05/12 04:31:54;;;;;;;1.52;0.70;;;;;;;19.50;54.20;101201.97;4756409;30;20059;-87
2021/05/12 04:34:20;;;;;;;0.95;0.50;;;;;;;19.50;54.02;101205.44;4756237;30;20108;-88
2021/05/12 04:36:45;;;;;;;4.03;0.80;;;;;;;19.54;54.38;101206.28;4756031;30;20035;-86
2021/05/12 04:39:11;;;;;;;1.23;0.63;;;;;;;19.57;54.07;101202.78;4755803;30;20035;-86
2021/05/12 04:41:36;;;;;;;2.20;0.80;;;;;;;19.57;54.12;101206.25;4740972;30;20431;-87
2021/05/12 04:44:03;;;;;;;1.42;0.80;;;;;;;19.61;53.94;101200.09;4756092;30;20503;-87
2021/05/12 04:46:29;;;;;;;2.67;0.70;;;;;;;19.69;53.71;101208.75;4755170;30;20039;-87
2021/05/12 04:48:54;;;;;;;1.63;0.85;;;;;;;19.74;53.49;101203.47;4741064;30;20043;-88
2021/05/12 04:51:21;;;;;;;1.40;0.70;;;;;;;19.78;53.25;101189.47;4740941;30;20514;-89
2021/05/12 04:53:47;;;;;;;1.63;0.80;;;;;;;19.77;53.49;101192.97;4771664;30;20166;-88
2021/05/12 04:56:13;;;;;;;1.50;0.70;;;;;;;19.76;53.42;101190.38;4757415;30;20032;-89
2021/05/12 04:58:39;;;;;;;1.83;0.85;;;;;;;19.80;53.40;101190.31;4745223;30;20444;-88
2021/05/12 05:01:04;;;;;;;1.00;0.63;;;;;;;19.98;52.97;101193.56;4759530;30;20032;-89
2021/05/12 05:03:30;;;;;;;1.73;0.60;;;;;;;20.14;52.47;101195.06;4758355;30;20052;-88
2021/05/12 05:05:57;;;;;;;1.58;0.80;;;;;;;20.45;51.85;101200.72;4742938;30;20185;-88
2021/05/12 05:08:24;;;;;;;1.10;0.70;;;;;;;20.77;51.00;101196.72;4757122;30;20049;-87
2021/05/12 05:10:50;;;;;;;1.35;0.73;;;;;;;21.04;50.33;101191.91;4773070;30;20027;-88
2021/05/12 05:13:16;;;;;;;2.22;0.90;;;;;;;21.20;50.25;101192.47;4741645;30;20468;-89
2021/05/12 05:15:41;;;;;;;1.98;0.50;;;;;;;21.30;50.34;101196.66;4772114;30;20061;-89
2021/05/12 05:18:07;;;;;;;9.27;2.80;;;;;;;20.74;49.71;101205.50;4757429;30;20032;-86
2021/05/12 05:20:51;;;;;;;13.82;3.38;;;;;;;20.41;49.43;101195.56;4759386;30;20035;-87
2021/05/12 05:24:09;;;;;;;;;;;;;;;;;;;;;
2021/05/12 05:26:16;;;;;;;17.50;3.72;;;;;;;20.24;48.89;101198.44;4757693;30;20056;-83
2021/05/12 05:29:09;;;;;;;14.77;3.45;;;;;;;20.24;48.69;101194.06;4740438;30;20043;-83
2021/05/12 05:32:05;;;;;;;20.38;3.45;;;;;;;20.35;47.64;101194.75;4739931;30;20052;-82
2021/05/12 05:38:47;;;;;;;14.55;3.25;;;;;;;20.52;46.82;101198.88;4771042;30;20530;-82
2021/05/12 05:41:23;;;;;;;9.07;3.10;;;;;;;20.69;46.47;101189.03;4766094;30;20503;-82
2021/05/12 05:44:04;;;;;;;;;;;;;;;;;;;;;
2021/05/12 05:49:50;;;;;;;8.20;2.90;;;;;;;21.30;44.61;101181.81;4757469;30;20040;-82
2021/05/12 05:58:48;;;;;;;;;;;;;;;;;;;;;
2021/05/12 06:01:35;;;;;;;11.93;3.28;;;;;;;22.06;42.25;101191.59;4755575;30;20042;-82
2021/05/12 06:04:47;;;;;;;11.02;3.15;;;;;;;22.19;41.58;101195.66;4740478;30;20036;-82
2021/05/12 06:07:53;;;;;;;11.85;3.20;;;;;;;22.32;41.73;101193.66;4746544;30;20043;-81
2021/05/12 06:10:21;;;;;;;9.85;3.10;;;;;;;22.36;41.39;101205.78;4757149;30;20563;-82
2021/05/12 06:13:01;;;;;;;;;;;;;;;;;;;;;
2021/05/12 06:16:05;;;;;;;;;;;;;;;;;;;;;
2021/05/12 06:21:55;;;;;;;14.23;3.80;;;;;;;22.84;39.89;101201.09;4763035;30;20036;-82
2021/05/12 06:25:03;;;;;;;9.75;3.00;;;;;;;22.81;40.05;101202.06;4759735;30;20058;-82
2021/05/12 06:27:51;;;;;;;11.45;3.30;;;;;;;22.91;39.81;101194.81;4791455;30;20043;-81
2021/05/12 06:34:04;;;;;;;;;;;;;;;;;;;;;
2021/05/12 06:37:19;;;;;;;9.85;3.05;;;;;;;22.85;39.59;101194.97;4795538;30;20541;-82
2021/05/12 06:40:36;;;;;;;9.80;3.30;;;;;;;23.00;39.00;101198.06;4792842;29;20115;-82
2021/05/12 06:47:15;;;;;;;9.73;3.05;;;;;;;23.01;39.46;101204.19;4777738;29;20065;-82
2021/05/12 06:53:25;;;;;;;11.73;3.38;;;;;;;23.18;38.74;101195.84;4790161;30;20066;-82
2021/05/12 06:55:50;;;;;;;11.90;3.13;;;;;;;23.26;38.53;101200.91;4792978;29;20538;-87
2021/05/12 06:58:15;;;;;;;10.13;3.35;;;;;;;23.02;39.85;101210.28;4776544;30;20063;-86
2021/05/12 07:00:41;;;;;;;11.73;3.13;;;;;;;23.02;39.81;101213.78;4762378;30;20044;-86
2021/05/12 07:03:06;;;;;;;7.40;2.88;;;;;;;23.30;39.79;101205.16;4776206;30;20032;-84
2021/05/12 07:05:31;;;;;;;8.77;2.97;;;;;;;23.41;40.03;101208.38;4777921;30;20047;-87
2021/05/12 07:07:57;;;;;;;7.68;2.70;;;;;;;23.56;39.97;101207.94;4792656;30;20092;-84
2021/05/12 07:10:22;;;;;;;8.77;2.80;;;;;;;23.55;40.02;101210.59;4792314;30;20062;-87
2021/05/12 07:12:48;;;;;;;7.47;2.95;;;;;;;23.44;40.58;101200.38;4792804;30;20133;-89
2021/05/12 07:15:13;;;;;;;7.93;2.70;;;;;;;23.37;40.72;101206.72;4792739;30;20049;-87
2021/05/12 07:17:40;;;;;;;6.93;2.80;;;;;;;23.30;41.01;101203.41;4776563;30;20043;-87
2021/05/12 07:20:06;;;;;;;6.38;2.35;;;;;;;23.34;41.19;101212.94;4782526;29;20042;-89
2021/05/12 07:22:31;;;;;;;8.13;2.50;;;;;;;23.27;41.47;101211.34;4795738;30;20031;-88
2021/05/12 07:24:57;;;;;;;8.00;2.40;;;;;;;23.28;41.28;101201.69;4783694;30;20089;-87
2021/05/12 07:27:22;;;;;;;5.00;2.38;;;;;;;23.20;41.40;101210.66;4781656;30;20047;-87
2021/05/12 07:29:49;;;;;;;8.82;2.42;;;;;;;23.03;42.44;101218.13;4796204;30;20031;-86
2021/05/12 07:32:15;;;;;;;8.68;2.38;;;;;;;22.92;42.73;101221.00;4797272;30;20031;-89
2021/05/12 07:34:41;;;;;;;5.35;2.42;;;;;;;22.83;42.66;101218.63;4782565;30;20101;-89
2021/05/12 07:37:06;;;;;;;5.50;2.30;;;;;;;22.69;43.65;101220.72;4793202;30;20039;-93
2021/05/12 07:39:32;;;;;;;7.15;2.47;;;;;;;23.02;42.42;101216.41;4762343;30;20388;-90
2021/05/12 07:42:02;;;;;;;6.85;2.40;;;;;;;24.37;39.52;101215.13;4794371;29;20172;-86
2021/05/12 07:44:28;;;;;;;6.50;2.15;;;;;;;23.55;40.84;101216.69;4792815;30;20039;-84
2021/05/12 07:46:53;;;;;;;6.25;2.42;;;;;;;24.63;38.85;101219.56;4779162;30;20062;-89
2021/05/12 07:49:18;;;;;;;5.63;2.20;;;;;;;23.42;40.99;101212.69;4780137;30;20043;-90
2021/05/12 07:51:44;;;;;;;8.43;2.38;;;;;;;22.38;43.91;101224.97;4769253;30;20047;-87
2021/05/12 07:54:09;;;;;;;6.72;2.38;;;;;;;22.09;44.87;101224.72;4797239;30;20035;-89
2021/05/12 07:56:35;;;;;;;6.00;2.28;;;;;;;21.78;46.28;101220.16;4795299;30;20069;-85
2021/05/12 07:59:00;;;;;;;5.60;1.85;;;;;;;21.79;46.23;101227.09;4782775;30;20035;-85
2021/05/12 08:01:36;;;;;;;5.30;2.20;;;;;;;21.66;46.42;101225.63;4798881;30;20035;-84
2021/05/12 08:04:02;;;;;;;7.05;2.05;;;;;;;21.71;46.43;101222.03;4796903;30;20071;-84
2021/05/12 08:06:27;;;;;;;6.70;2.13;;;;;;;21.67;46.75;101224.75;4795075;30;20100;-85
2021/05/12 08:08:52;;;;;;;5.88;1.85;;;;;;;21.63;46.82;101223.94;4796204;30;20043;-84
2021/05/12 08:11:21;;;;;;;4.93;1.83;;;;;;;21.59;46.80;101231.91;4795864;30;20118;-85
2021/05/12 08:13:47;;;;;;;6.60;1.70;;;;;;;21.38;47.35;101234.00;4782307;30;20042;-86
2021/05/12 08:16:12;;;;;;;5.70;2.10;;;;;;;21.47;47.42;101235.59;4798539;30;20056;-86
2021/05/12 08:18:37;;;;;;;6.03;2.13;;;;;;;21.46;47.17;101237.38;4797042;30;20032;-87
2021/05/12 08:21:05;;;;;;;7.97;2.30;;;;;;;21.44;47.52;101243.53;4766690;30;20043;-87
2021/05/12 08:23:31;;;;;;;6.05;2.10;;;;;;;21.41;47.44;101240.97;4797108;30;20030;-87
2021/05/12 08:25:56;;;;;;;5.07;2.00;;;;;;;21.38;47.72;101247.09;4799073;30;20043;-88
2021/05/12 08:28:22;;;;;;;5.85;2.17;;;;;;;21.39;47.67;101240.97;4800061;30;20433;-86
2021/05/12 08:30:48;;;;;;;4.15;1.92;;;;;;;21.40;47.56;101245.31;4797858;30;20058;-89
2021/05/12 08:33:16;;;;;;;4.93;1.88;;;;;;;21.35;47.67;101250.63;4764583;30;20094;-88
2021/05/12 08:35:44;;;;;;;5.07;1.90;;;;;;;21.30;47.76;101255.09;4794673;29;20066;-87
2021/05/12 08:38:16;;;;;;;6.07;1.80;;;;;;;21.29;47.76;101255.13;4794659;30;20027;-88
2021/05/12 08:40:42;;;;;;;5.88;1.55;;;;;;;21.34;47.78;101259.41;4793174;30;20051;-86
2021/05/12 08:43:08;;;;;;;5.25;1.77;;;;;;;21.30;47.89;101255.09;4792854;30;20114;-90
2021/05/12 08:45:34;;;;;;;7.55;1.85;;;;;;;21.27;47.79;101252.53;4793894;29;20127;-87
2021/05/12 08:48:01;;;;;;;5.22;1.70;;;;;;;21.25;48.06;101251.72;4793662;30;20485;-89
2021/05/12 08:50:27;;;;;;;6.10;2.05;;;;;;;21.23;47.95;101252.59;4780971;30;20073;-88
2021/05/12 08:52:52;;;;;;;5.47;1.90;;;;;;;21.16;48.15;101249.25;4786043;30;20036;-83
2021/05/12 08:55:21;;;;;;;6.50;2.10;;;;;;;21.16;48.16;101246.63;4807258;30;20042;-84
2021/05/12 08:57:50;;;;;;;3.95;1.80;;;;;;;21.10;48.09;101247.63;4795959;29;20035;-85
2021/05/12 09:00:16;;;;;;;4.60;1.60;;;;;;;21.08;48.43;101244.16;4792861;29;20035;-85
2021/05/12 09:02:45;;;;;;;5.07;1.77;;;;;;;21.08;48.40;101249.41;4789487;30;20130;-85
2021/05/12 09:05:13;;;;;;;5.63;1.98;;;;;;;21.02;48.68;101244.25;4789573;30;20031;-85
2021/05/12 09:07:41;;;;;;;5.38;1.90;;;;;;;21.03;48.55;101243.34;4789654;30;20027;-82
2021/05/12 09:10:07;;;;;;;5.20;1.50;;;;;;;21.00;48.75;101237.34;4788555;30;20439;-84
2021/05/12 09:12:55;;;;;;;4.38;1.75;;;;;;;20.96;48.88;101239.13;4790285;30;20043;-84
2021/05/12 09:15:38;;;;;;;;;;;;;;;;;;;;;
2021/05/12 09:18:05;;;;;;;7.18;1.85;;;;;;;20.91;49.20;101230.50;4789985;30;20033;-85
2021/05/12 09:20:40;;;;;;;5.82;1.90;;;;;;;20.88;48.94;101238.38;4789390;29;20066;-84
2021/05/12 09:23:31;;;;;;;3.45;1.42;;;;;;;20.82;48.95;101231.53;4789906;30;20045;-85
2021/05/12 09:26:04;;;;;;;6.03;1.70;;;;;;;20.82;49.13;101242.00;4789023;30;20060;-87
2021/05/12 09:28:32;;;;;;;5.22;1.80;;;;;;;20.82;49.02;101243.72;4790056;30;20046;-86
2021/05/12 09:31:05;;;;;;;6.15;1.50;;;;;;;20.79;49.06;101238.56;4787352;30;20085;-84
2021/05/12 09:33:43;;;;;;;5.15;1.63;;;;;;;20.76;49.21;101239.47;4789505;29;20050;-85
2021/05/12 09:36:10;;;;;;;5.90;1.73;;;;;;;20.77;49.53;101241.19;4787536;30;20058;-85
2021/05/12 09:38:50;;;;;;;;;;;;;;;;;;;;;
2021/05/12 09:41:19;;;;;;;3.60;1.60;;;;;;;20.72;49.54;101241.25;4789091;29;20031;-85
2021/05/12 09:50:40;;;;;;;5.78;1.50;;;;;;;20.61;49.67;101245.81;4793874;30;20463;-84
2021/05/12 09:53:11;;;;;;;4.00;1.73;;;;;;;20.59;49.68;101244.09;4794094;29;20028;-83
2021/05/12 09:55:44;;;;;;;3.10;1.48;;;;;;;20.61;49.59;101251.03;4794033;29;20168;-84
2021/05/12 09:58:13;;;;;;;3.58;1.63;;;;;;;20.57;49.85;101254.59;4792460;30;20039;-83
2021/05/12 10:00:47;;;;;;;3.35;1.30;;;;;;;20.59;49.57;101255.44;4791252;30;20514;-81
2021/05/12 10:03:18;;;;;;;4.28;1.60;;;;;;;20.57;49.60;101257.19;4790275;30;20039;-85
2021/05/12 10:05:55;;;;;;;3.65;1.50;;;;;;;20.55;49.84;101248.47;4791758;30;20031;-83
2021/05/12 10:08:31;;;;;;;4.05;1.52;;;;;;;20.53;49.78;101251.13;4791870;30;20058;-84
2021/05/12 10:11:01;;;;;;;5.40;1.80;;;;;;;20.55;49.89;101251.09;4791785;30;20031;-86
2021/05/12 10:13:29;;;;;;;3.25;1.55;;;;;;;20.50;50.01;101247.69;4791653;30;20028;-86
2021/05/12 10:16:05;;;;;;;4.47;1.58;;;;;;;20.52;50.05;101252.00;4791537;30;20035;-83
2021/05/12 10:18:30;;;;;;;2.90;1.17;;;;;;;20.53;49.91;101253.75;4791856;30;20031;-85
2021/05/12 10:21:00;;;;;;;4.15;1.45;;;;;;;20.52;49.93;101246.78;4791339;30;20371;-86
2021/05/12 10:23:54;;;;;;;4.30;1.50;;;;;;;20.49;50.05;101246.84;4792673;30;20471;-88
2021/05/12 10:26:22;;;;;;;4.00;1.40;;;;;;;20.48;49.89;101255.56;4779842;30;20098;-86
2021/05/12 10:28:53;;;;;;;3.92;1.25;;;;;;;20.48;50.03;101254.69;4794610;29;20027;-86
2021/05/12 10:31:26;;;;;;;5.80;1.55;;;;;;;20.45;49.96;101249.53;4793097;30;20506;-86
2021/05/12 10:34:02;;;;;;;;;;;;;;;;;;;;;
2021/05/12 10:36:40;;;;;;;;;;;;;;;;;;;;;
2021/05/12 10:39:06;;;;;;;4.25;1.58;;;;;;;20.47;50.14;101259.06;4793053;30;20581;-87
2021/05/12 10:41:48;;;;;;;5.90;1.50;;;;;;;20.47;49.76;101246.00;4794888;30;20058;-85
2021/05/12 10:44:18;;;;;;;5.28;1.42;;;;;;;20.47;49.71;101240.78;4797823;30;20043;-88
2021/05/12 10:46:55;;;;;;;4.88;1.20;;;;;;;20.49;50.00;101259.03;4798039;29;20032;-87
2021/05/12 10:49:28;;;;;;;4.18;1.38;;;;;;;20.46;49.99;101249.47;4796384;30;20039;-88
2021/05/12 10:52:06;;;;;;;;;;;;;;;;;;;;;
2021/05/12 10:54:44;;;;;;;3.60;1.48;;;;;;;20.46;50.02;101248.63;4795341;30;20103;-87
2021/05/12 10:57:32;;;;;;;3.90;1.50;;;;;;;20.47;50.06;101253.84;4789829;29;20110;-87
2021/05/12 11:00:03;;;;;;;5.20;1.50;;;;;;;20.43;49.87;101253.91;4791412;30;20039;-88
2021/05/12 11:02:53;;;;;;;4.30;1.40;;;;;;;20.46;49.93;101262.56;4791079;30;20110;-87
2021/05/12 11:05:21;;;;;;;3.75;1.30;;;;;;;20.42;49.87;101255.63;4789757;30;20040;-87
2021/05/12 11:08:15;;;;;;;3.72;1.05;;;;;;;20.45;49.83;101260.84;4790221;30;20188;-89
2021/05/12 11:11:11;;;;;;;5.10;1.52;;;;;;;20.46;49.89;101261.69;4790878;30;20031;-86
2021/05/12 11:14:15;;;;;;;2.55;1.30;;;;;;;20.45;49.93;101262.59;4799799;30;20039;-87
2021/05/12 11:19:59;;;;;;;3.65;1.10;;;;;;;20.46;49.84;101261.69;4786350;29;20134;-88
2021/05/12 11:22:38;;;;;;;3.15;1.30;;;;;;;20.45;49.81;101252.13;4794223;29;20039;-87
2021/05/12 11:25:11;;;;;;;3.30;1.20;;;;;;;20.43;49.92;101256.53;4792848;29;20110;-87
2021/05/12 11:33:31;;;;;;;3.20;1.50;;;;;;;20.43;49.99;101257.38;4791451;30;20081;-88
2021/05/12 11:36:10;;;;;;;3.60;1.10;;;;;;;20.44;49.82;101251.25;4790615;30;20035;-88
2021/05/12 11:38:40;;;;;;;2.38;1.00;;;;;;;20.46;50.13;101252.09;4790361;30;20114;-87
2021/05/12 11:41:21;;;;;;;2.85;1.20;;;;;;;20.43;49.53;101243.47;4790979;29;20039;-86
2021/05/12 11:44:01;;;;;;;3.45;1.30;;;;;;;20.44;50.14;101250.41;4790048;30;20508;-87
2021/05/12 11:46:34;;;;;;;2.70;1.02;;;;;;;20.46;50.12;101253.84;4790521;29;20548;-85
2021/05/12 11:49:09;;;;;;;2.80;1.13;;;;;;;20.45;49.69;101247.78;4789572;30;20043;-88
2021/05/12 11:52:00;;;;;;;3.38;1.27;;;;;;;20.47;50.18;101256.44;4791577;30;20111;-89
2021/05/12 11:57:16;;;;;;;3.35;1.10;;;;;;;20.48;50.29;101252.94;4809720;24;20131;-87
2021/05/12 12:00:00;;;;;;;2.90;1.20;;;;;;;20.48;50.19;101249.47;4759256;30;20047;-88
2021/05/12 12:02:38;;;;;;;;;;;;;;;;;;;;;
2021/05/12 12:05:37;;;;;;;3.65;1.17;;;;;;;20.50;50.45;101258.16;4790137;30;20041;-86
2021/05/12 12:08:18;;;;;;;3.45;1.30;;;;;;;20.47;50.00;101251.22;4772551;30;20031;-86
2021/05/12 12:10:47;;;;;;;3.38;1.20;;;;;;;20.45;49.70;101249.53;4759766;30;20100;-87
2021/05/12 12:13:14;;;;;;;1.83;1.02;;;;;;;20.45;50.36;101253.00;4774571;30;20027;-86
2021/05/12 12:15:52;;;;;;;3.35;1.30;;;;;;;20.46;50.02;101252.09;4773620;30;20476;-86
2021/05/12 12:18:38;;;;;;;3.55;1.10;;;;;;;20.49;50.42;101248.56;4773813;30;20036;-86
2021/05/12 12:21:07;;;;;;;4.47;1.25;;;;;;;20.49;50.18;101245.94;4774906;30;20073;-87
2021/05/12 12:23:50;;;;;;;;;;;;;;;;;;;;;
2021/05/12 12:26:29;;;;;;;;;;;;;;;;;;;;;
2021/05/12 12:29:12;;;;;;;;;;;;;;;;;;;;;
2021/05/12 12:31:47;;;;;;;3.22;1.13;;;;;;;20.56;50.45;101260.69;4791007;30;20121;-87
2021/05/12 12:34:24;;;;;;;2.55;1.10;;;;;;;20.55;50.23;101251.94;4775013;30;20042;-87
2021/05/12 12:36:54;;;;;;;6.68;1.83;;;;;;;20.53;49.55;101256.38;4780913;24;20043;-87
2021/05/12 12:39:20;;;;;;;3.90;1.30;;;;;;;20.49;49.06;101248.56;4770061;30;20047;-86
2021/05/12 12:41:48;;;;;;;5.32;1.48;;;;;;;20.48;49.04;101247.72;4771284;30;20050;-87
2021/05/12 12:44:13;;;;;;;7.55;1.30;;;;;;;20.46;48.01;101239.03;4770269;30;20080;-87
2021/05/12 12:46:40;;;;;;;4.55;1.40;;;;;;;20.45;48.13;101245.16;4743340;30;20434;-88
2021/05/12 12:49:06;;;;;;;9.80;1.45;;;;;;;20.45;47.92;101242.53;4738212;30;20443;-88
2021/05/12 12:51:44;;;;;;;6.53;1.70;;;;;;;20.45;47.90;101241.69;4767454;30;20109;-87
2021/05/12 12:54:11;;;;;;;5.45;1.80;;;;;;;20.47;46.67;101250.34;4767052;30;20063;-88
2021/05/12 12:56:49;;;;;;;6.75;1.67;;;;;;;20.45;46.53;101250.38;4737855;30;20048;-88
2021/05/12 12:59:16;;;;;;;5.45;1.80;;;;;;;20.46;46.05;101244.25;4753604;30;20072;-88
2021/05/12 13:01:41;;;;;;;5.43;1.70;;;;;;;20.49;46.17;101248.56;4766965;30;20024;-87